Time;durP1;ratioP1;P1;durP2;ratioP2;P2;SDS_P1;SDS_P2;PMS_P1;PMS_P2;Temp;Humidity;BMP_temperature;BMP_pressure;BME280_temperature;BME280_humidity;BME280_pressure;Samples;Min_cycle;Max_cycle;Signal;HPM_P1;HPM_P2
2022/03/26 00:00:24;;;;;;;0.80;0.80;;;;;;;;;;4975569;28;20035;-93
2022/03/26 00:02:51;;;;;;;0.85;0.85;;;;;;;;;;4957494;28;20070;-91
2022/03/26 00:05:20;;;;;;;1.55;1.45;;;;;;;;;;4971865;28;20039;-92
2022/03/26 00:07:46;;;;;;;2.88;1.90;;;;;;;;;;4964730;28;20068;-93
2022/03/26 00:10:13;;;;;;;3.08;2.78;;;;;;;;;;4963408;28;20065;-93
2022/03/26 00:12:41;;;;;;;1.35;1.25;;;;;;;;;;4979142;28;20054;-92
2022/03/26 00:15:12;;;;;;;0.50;0.50;;;;;;;;;;4959134;28;20057;-93
2022/03/26 00:17:41;;;;;;;4.93;2.97;;;;;;;;;;4960060;28;20042;-92
2022/03/26 00:20:07;;;;;;;2.83;2.58;;;;;;;;;;4971303;28;20055;-93
2022/03/26 00:22:36;;;;;;;9.32;3.58;;;;;;;;;;4959433;28;20043;-93
2022/03/26 00:25:03;;;;;;;0.50;0.50;;;;;;;;;;4959078;28;20067;-92
2022/03/26 00:27:30;;;;;;;0.52;0.52;;;;;;;;;;4960358;28;20042;-93
2022/03/26 00:29:57;;;;;;;1.42;1.23;;;;;;;;;;4958901;28;20082;-92
2022/03/26 00:32:23;;;;;;;4.32;3.50;;;;;;;;;;4964362;28;20049;-93
2022/03/26 00:34:49;;;;;;;3.78;1.77;;;;;;;;;;4968556;28;20182;-93
2022/03/26 00:37:21;;;;;;;0.88;0.88;;;;;;;;;;4977692;28;20046;-93
2022/03/26 00:39:51;;;;;;;15.38;1.48;;;;;;;;;;4968736;28;20097;-93
2022/03/26 00:42:17;;;;;;;3.78;2.15;;;;;;;;;;4968513;28;20134;-92
2022/03/26 00:44:44;;;;;;;3.10;1.88;;;;;;;;;;4955957;28;20043;-92
2022/03/26 00:47:15;;;;;;;2.28;1.42;;;;;;;;;;4962050;28;20050;-93
2022/03/26 00:49:42;;;;;;;0.88;0.88;;;;;;;;;;4964889;28;20050;-93
2022/03/26 00:52:11;;;;;;;1.27;0.93;;;;;;;;;;4984978;28;20514;-93
2022/03/26 00:54:40;;;;;;;17.05;1.95;;;;;;;;;;4969126;28;20078;-94
2022/03/26 00:57:10;;;;;;;1.65;1.55;;;;;;;;;;4969321;28;20042;-93
2022/03/26 00:59:36;;;;;;;1.75;0.95;;;;;;;;;;4968859;28;20038;-94
2022/03/26 01:02:07;;;;;;;0.95;0.95;;;;;;;;;;4965755;28;20050;-93
2022/03/26 01:04:33;;;;;;;0.30;0.30;;;;;;;;;;4962916;28;20050;-94
2022/03/26 01:07:01;;;;;;;0.30;0.30;;;;;;;;;;4959508;28;20040;-93
2022/03/26 01:09:29;;;;;;;2.40;1.98;;;;;;;;;;4965557;28;20070;-93
2022/03/26 01:12:01;;;;;;;0.47;0.47;;;;;;;;;;4956325;28;20043;-92
2022/03/26 01:14:30;;;;;;;0.93;0.93;;;;;;;;;;4959838;28;20042;-93
2022/03/26 01:16:56;;;;;;;1.15;1.05;;;;;;;;;;4958270;28;20042;-93
2022/03/26 01:19:22;;;;;;;0.40;0.40;;;;;;;;;;4968193;28;20039;-93
2022/03/26 01:21:49;;;;;;;0.40;0.40;;;;;;;;;;4960056;28;20043;-93
2022/03/26 01:24:18;;;;;;;8.77;2.58;;;;;;;;;;4967605;28;20039;-92
2022/03/26 01:26:44;;;;;;;0.65;0.65;;;;;;;;;;4970218;28;20046;-93
2022/03/26 01:29:10;;;;;;;0.40;0.40;;;;;;;;;;4955408;28;20106;-93
2022/03/26 01:31:42;;;;;;;3.15;1.73;;;;;;;;;;4977164;28;20050;-94
2022/03/26 01:34:08;;;;;;;0.50;0.50;;;;;;;;;;4961142;28;20118;-93
2022/03/26 01:36:34;;;;;;;0.63;0.63;;;;;;;;;;4954563;28;20043;-94
2022/03/26 01:39:01;;;;;;;2.42;1.75;;;;;;;;;;4956878;28;20042;-93
2022/03/26 01:41:29;;;;;;;0.50;0.50;;;;;;;;;;4963689;28;20100;-93
2022/03/26 01:43:55;;;;;;;1.52;1.15;;;;;;;;;;4973503;28;20058;-92
2022/03/26 01:46:21;;;;;;;5.43;1.17;;;;;;;;;;4960635;28;20042;-91
2022/03/26 01:48:48;;;;;;;7.63;2.38;;;;;;;;;;4966930;28;20038;-93
2022/03/26 01:51:14;;;;;;;1.42;1.33;;;;;;;;;;4964219;28;20066;-94
2022/03/26 01:53:46;;;;;;;2.15;1.55;;;;;;;;;;4960588;28;20069;-94
2022/03/26 01:56:13;;;;;;;2.47;1.05;;;;;;;;;;4954221;28;20037;-94
2022/03/26 01:58:39;;;;;;;4.63;1.50;;;;;;;;;;4960401;28;20042;-94
2022/03/26 02:01:05;;;;;;;2.20;1.63;;;;;;;;;;4962275;28;20083;-92
2022/03/26 02:03:32;;;;;;;0.93;0.82;;;;;;;;;;4975953;28;20050;-94
2022/03/26 02:05:58;;;;;;;2.88;2.00;;;;;;;;;;4965028;28;20034;-93
2022/03/26 02:08:25;;;;;;;10.73;2.58;;;;;;;;;;4967057;28;20089;-93
2022/03/26 02:10:53;;;;;;;0.77;0.77;;;;;;;;;;4960519;28;20090;-92
2022/03/26 02:13:20;;;;;;;2.50;1.30;;;;;;;;;;4962405;28;20051;-91
2022/03/26 02:15:47;;;;;;;0.82;0.82;;;;;;;;;;4958943;28;20509;-92
2022/03/26 02:18:16;;;;;;;0.40;0.40;;;;;;;;;;4957076;28;20042;-94
2022/03/26 02:20:43;;;;;;;0.45;0.45;;;;;;;;;;4966488;28;20038;-92
2022/03/26 02:23:12;;;;;;;0.50;0.50;;;;;;;;;;4966253;28;20050;-92
2022/03/26 02:25:38;;;;;;;0.77;0.77;;;;;;;;;;4964601;28;20038;-94
2022/03/26 02:28:10;;;;;;;7.22;3.92;;;;;;;;;;4954104;28;20066;-94
2022/03/26 02:30:36;;;;;;;2.85;1.95;;;;;;;;;;4959929;28;20045;-93
2022/03/26 02:33:03;;;;;;;2.85;0.98;;;;;;;;;;4955291;28;20047;-93
2022/03/26 02:35:30;;;;;;;2.22;1.85;;;;;;;;;;4966406;28;20151;-93
2022/03/26 02:37:56;;;;;;;0.60;0.60;;;;;;;;;;4965236;28;20050;-92
2022/03/26 02:40:22;;;;;;;0.32;0.32;;;;;;;;;;4960367;28;20046;-93
2022/03/26 02:42:49;;;;;;;1.30;1.20;;;;;;;;;;4984173;28;20069;-93
2022/03/26 02:45:16;;;;;;;0.35;0.35;;;;;;;;;;4981656;28;20042;-93
2022/03/26 02:47:48;;;;;;;0.80;0.77;;;;;;;;;;4960147;28;20117;-93
2022/03/26 02:50:14;;;;;;;1.95;1.60;;;;;;;;;;4957501;28;20074;-93
2022/03/26 02:52:41;;;;;;;0.30;0.30;;;;;;;;;;4953285;28;20075;-91
2022/03/26 02:55:09;;;;;;;1.95;1.77;;;;;;;;;;4960035;28;20049;-92
2022/03/26 02:57:36;;;;;;;2.50;2.30;;;;;;;;;;4975109;28;20054;-92
2022/03/26 03:00:03;;;;;;;2.38;1.98;;;;;;;;;;4960182;28;20050;-93
2022/03/26 03:02:30;;;;;;;1.08;0.98;;;;;;;;;;4954636;28;20055;-95
2022/03/26 03:04:56;;;;;;;0.52;0.52;;;;;;;;;;4955835;28;20110;-94
2022/03/26 03:07:24;;;;;;;2.15;1.85;;;;;;;;;;4966901;28;20059;-94
2022/03/26 03:09:51;;;;;;;0.75;0.75;;;;;;;;;;4961093;28;20074;-94
2022/03/26 03:12:18;;;;;;;1.38;1.27;;;;;;;;;;4955514;28;20043;-94
2022/03/26 03:14:47;;;;;;;3.10;1.95;;;;;;;;;;4955562;28;20053;-93
2022/03/26 03:17:15;;;;;;;0.68;0.68;;;;;;;;;;4965815;28;20066;-93
2022/03/26 03:19:41;;;;;;;2.38;2.17;;;;;;;;;;4961070;28;20039;-93
2022/03/26 03:22:08;;;;;;;3.85;1.80;;;;;;;;;;4960250;28;20086;-94
2022/03/26 03:24:36;;;;;;;2.15;1.88;;;;;;;;;;4960300;28;20034;-94
2022/03/26 03:27:07;;;;;;;0.80;0.80;;;;;;;;;;4954495;28;20042;-93
2022/03/26 03:29:36;;;;;;;0.68;0.68;;;;;;;;;;4961806;28;20070;-95
2022/03/26 03:32:07;;;;;;;2.80;1.35;;;;;;;;;;4965801;28;20487;-95
2022/03/26 03:34:37;;;;;;;1.77;1.65;;;;;;;;;;4968637;28;20039;-94
2022/03/26 03:37:03;;;;;;;8.52;3.10;;;;;;;;;;4966087;28;20050;-94
2022/03/26 03:39:32;;;;;;;2.45;1.83;;;;;;;;;;4958651;28;20039;-94
2022/03/26 03:41:59;;;;;;;0.73;0.73;;;;;;;;;;4953562;28;20062;-94
2022/03/26 03:44:25;;;;;;;1.33;1.23;;;;;;;;;;4954139;28;20047;-94
2022/03/26 03:46:54;;;;;;;3.95;2.33;;;;;;;;;;4956842;28;20046;-93
2022/03/26 03:49:21;;;;;;;3.55;2.95;;;;;;;;;;4957877;28;20042;-96
2022/03/26 03:51:49;;;;;;;2.28;1.33;;;;;;;;;;4958658;28;20047;-94
2022/03/26 03:54:18;;;;;;;1.58;1.48;;;;;;;;;;4968416;28;20053;-93
2022/03/26 03:56:47;;;;;;;1.20;1.10;;;;;;;;;;4964080;28;20072;-93
2022/03/26 03:59:16;;;;;;;6.82;6.18;;;;;;;;;;4965440;28;20042;-92
2022/03/26 04:01:46;;;;;;;5.88;3.13;;;;;;;;;;4960810;28;20078;-93
2022/03/26 04:04:12;;;;;;;3.58;1.85;;;;;;;;;;4962401;28;20489;-93
2022/03/26 04:06:38;;;;;;;19.73;4.13;;;;;;;;;;4960507;28;20050;-94
2022/03/26 04:09:04;;;;;;;1.65;1.15;;;;;;;;;;4964838;28;20047;-95
2022/03/26 04:11:31;;;;;;;3.97;1.67;;;;;;;;;;4966131;28;20051;-91
2022/03/26 04:13:59;;;;;;;0.75;0.73;;;;;;;;;;4968042;28;20053;-94
2022/03/26 04:16:26;;;;;;;2.08;1.80;;;;;;;;;;4968516;28;20042;-94
2022/03/26 04:18:52;;;;;;;1.90;1.00;;;;;;;;;;4956720;28;20074;-93
2022/03/26 04:21:18;;;;;;;0.88;0.60;;;;;;;;;;4960304;28;20051;-93
2022/03/26 04:23:45;;;;;;;68.13;3.20;;;;;;;;;;4960008;28;20116;-93
2022/03/26 04:26:11;;;;;;;1.88;1.75;;;;;;;;;;4967734;28;20133;-92
2022/03/26 04:28:37;;;;;;;1.90;1.73;;;;;;;;;;4982830;28;20129;-93
2022/03/26 04:31:04;;;;;;;0.50;0.50;;;;;;;;;;4955157;28;20042;-93
2022/03/26 04:33:32;;;;;;;1.33;1.23;;;;;;;;;;4960855;28;20058;-93
2022/03/26 04:35:59;;;;;;;0.47;0.47;;;;;;;;;;4961485;28;20050;-94
2022/03/26 04:38:25;;;;;;;0.30;0.30;;;;;;;;;;4962753;28;20035;-93
2022/03/26 04:40:51;;;;;;;2.85;2.58;;;;;;;;;;4961092;28;20458;-96
2022/03/26 04:43:23;;;;;;;3.72;2.53;;;;;;;;;;4961791;28;20042;-94
2022/03/26 04:45:49;;;;;;;1.20;1.10;;;;;;;;;;4968169;28;20050;-95
2022/03/26 04:48:16;;;;;;;0.75;0.75;;;;;;;;;;4955302;28;20047;-93
2022/03/26 04:50:45;;;;;;;2.72;1.20;;;;;;;;;;4961223;28;20054;-94
2022/03/26 04:53:12;;;;;;;0.88;0.80;;;;;;;;;;4967330;28;20046;-96
2022/03/26 04:55:38;;;;;;;2.67;2.05;;;;;;;;;;4955098;28;20561;-94
2022/03/26 04:58:04;;;;;;;0.80;0.75;;;;;;;;;;4959365;28;20404;-95
2022/03/26 05:00:34;;;;;;;1.05;0.98;;;;;;;;;;4968141;28;20132;-94
2022/03/26 05:03:00;;;;;;;1.80;1.65;;;;;;;;;;4962299;28;20049;-94
2022/03/26 05:05:26;;;;;;;0.40;0.40;;;;;;;;;;4963602;28;20039;-94
2022/03/26 05:07:58;;;;;;;6.07;1.55;;;;;;;;;;4963917;28;20035;-93
2022/03/26 05:10:29;;;;;;;3.40;1.55;;;;;;;;;;4957326;28;20129;-94
2022/03/26 05:12:56;;;;;;;1.42;1.33;;;;;;;;;;4973699;28;20043;-95
2022/03/26 05:15:23;;;;;;;2.10;1.98;;;;;;;;;;4953232;28;20039;-92
2022/03/26 05:17:50;;;;;;;0.40;0.40;;;;;;;;;;4962618;28;20101;-94
2022/03/26 05:20:16;;;;;;;0.43;0.43;;;;;;;;;;4963863;28;20043;-94
2022/03/26 05:22:49;;;;;;;2.60;1.25;;;;;;;;;;4963862;28;20045;-94
2022/03/26 05:25:19;;;;;;;0.50;0.50;;;;;;;;;;4970381;28;20062;-94
2022/03/26 05:27:46;;;;;;;0.40;0.40;;;;;;;;;;4964126;28;20035;-94
2022/03/26 05:30:12;;;;;;;0.80;0.80;;;;;;;;;;4964543;28;20129;-94
2022/03/26 05:32:42;;;;;;;1.90;1.70;;;;;;;;;;4986605;28;20073;-95
2022/03/26 05:35:13;;;;;;;3.03;1.33;;;;;;;;;;4958073;28;20052;-93
2022/03/26 05:37:44;;;;;;;0.77;0.77;;;;;;;;;;4971778;28;20058;-94
2022/03/26 05:40:11;;;;;;;2.83;1.83;;;;;;;;;;4967980;28;20039;-95
2022/03/26 05:42:40;;;;;;;13.70;4.00;;;;;;;;;;4971587;28;20042;-94
2022/03/26 05:45:09;;;;;;;7.80;3.28;;;;;;;;;;4969312;28;20041;-95
2022/03/26 05:47:36;;;;;;;6.50;3.63;;;;;;;;;;4958047;28;20038;-94
2022/03/26 05:50:03;;;;;;;6.22;1.85;;;;;;;;;;4964245;28;20052;-94
2022/03/26 05:52:29;;;;;;;5.28;2.03;;;;;;;;;;4964596;28;20057;-93
2022/03/26 05:54:56;;;;;;;1.77;1.15;;;;;;;;;;4981216;28;20106;-93
2022/03/26 05:57:22;;;;;;;0.82;0.82;;;;;;;;;;4946844;28;20188;-92
2022/03/26 05:59:54;;;;;;;1.27;1.17;;;;;;;;;;4963141;28;20057;-93
2022/03/26 06:02:21;;;;;;;2.88;2.40;;;;;;;;;;4956007;28;20062;-94
2022/03/26 06:04:53;;;;;;;0.40;0.40;;;;;;;;;;4958669;28;20038;-94
2022/03/26 06:07:20;;;;;;;3.00;2.15;;;;;;;;;;4974092;28;20042;-94
2022/03/26 06:09:46;;;;;;;0.40;0.40;;;;;;;;;;4948437;28;20049;-95
2022/03/26 06:12:17;;;;;;;0.75;0.75;;;;;;;;;;4965225;28;20046;-95
2022/03/26 06:14:46;;;;;;;2.85;1.50;;;;;;;;;;4968145;28;20038;-95
2022/03/26 06:17:12;;;;;;;5.78;2.60;;;;;;;;;;4957875;28;20046;-94
2022/03/26 06:19:42;;;;;;;3.65;3.15;;;;;;;;;;4979669;28;20042;-94
2022/03/26 06:22:08;;;;;;;4.40;2.80;;;;;;;;;;4963296;28;20050;-94
2022/03/26 06:24:37;;;;;;;10.25;2.67;;;;;;;;;;4965203;28;20038;-94
2022/03/26 06:27:06;;;;;;;0.50;0.50;;;;;;;;;;4976118;28;20050;-94
2022/03/26 06:29:33;;;;;;;0.60;0.60;;;;;;;;;;4957568;28;20042;-94
2022/03/26 06:32:01;;;;;;;3.33;1.92;;;;;;;;;;4962950;28;20043;-93
2022/03/26 06:34:28;;;;;;;1.60;1.25;;;;;;;;;;4964584;28;20081;-93
2022/03/26 06:36:58;;;;;;;1.80;1.38;;;;;;;;;;4959813;28;20069;-93
2022/03/26 06:39:24;;;;;;;10.82;6.47;;;;;;;;;;4958404;28;20035;-94
2022/03/26 06:41:51;;;;;;;5.57;3.88;;;;;;;;;;4962032;28;20038;-93
2022/03/26 06:44:17;;;;;;;11.93;7.25;;;;;;;;;;4962745;28;20070;-94
2022/03/26 06:46:47;;;;;;;18.33;8.65;;;;;;;;;;4968778;28;20042;-93
2022/03/26 06:49:13;;;;;;;2.20;1.88;;;;;;;;;;4962873;28;20408;-94
2022/03/26 06:51:40;;;;;;;3.50;2.45;;;;;;;;;;4968552;28;20050;-94
2022/03/26 06:54:07;;;;;;;9.32;5.40;;;;;;;;;;4960977;28;20047;-94
2022/03/26 06:56:39;;;;;;;3.90;2.92;;;;;;;;;;4963150;28;20498;-94
2022/03/26 06:59:06;;;;;;;7.97;2.38;;;;;;;;;;4962040;28;20130;-93
2022/03/26 07:01:32;;;;;;;5.97;4.82;;;;;;;;;;4953855;28;20111;-94
2022/03/26 07:03:58;;;;;;;9.25;6.68;;;;;;;;;;4958428;28;20122;-95
2022/03/26 07:06:24;;;;;;;22.98;10.25;;;;;;;;;;4961711;28;20038;-94
2022/03/26 07:08:51;;;;;;;12.82;6.43;;;;;;;;;;4954723;28;20074;-91
2022/03/26 07:11:17;;;;;;;24.98;9.45;;;;;;;;;;4955649;28;20047;-93
2022/03/26 07:13:44;;;;;;;36.05;16.05;;;;;;;;;;4969800;28;20518;-92
2022/03/26 07:16:15;;;;;;;63.47;24.98;;;;;;;;;;4961267;28;20034;-94
2022/03/26 07:18:42;;;;;;;34.67;14.52;;;;;;;;;;4966322;28;20042;-93
2022/03/26 07:21:08;;;;;;;38.88;19.25;;;;;;;;;;4969334;28;20042;-93
2022/03/26 07:23:34;;;;;;;33.63;13.18;;;;;;;;;;4985196;28;20042;-93
2022/03/26 07:26:01;;;;;;;44.55;18.85;;;;;;;;;;4968540;28;20053;-94
2022/03/26 07:28:27;;;;;;;8.27;5.95;;;;;;;;;;4969723;28;20043;-93
2022/03/26 07:30:53;;;;;;;16.38;5.63;;;;;;;;;;4964834;28;20045;-92
2022/03/26 07:33:19;;;;;;;8.45;4.28;;;;;;;;;;4967039;28;20039;-95
2022/03/26 07:35:46;;;;;;;0.88;0.88;;;;;;;;;;4965097;28;20059;-95
2022/03/26 07:38:12;;;;;;;3.20;2.58;;;;;;;;;;4959545;28;20550;-95
2022/03/26 07:40:44;;;;;;;10.40;6.57;;;;;;;;;;4982647;28;20039;-96
2022/03/26 07:43:12;;;;;;;1.70;0.95;;;;;;;;;;4962474;28;20050;-95
2022/03/26 07:45:38;;;;;;;2.28;1.70;;;;;;;;;;4961763;28;20054;-95
2022/03/26 07:48:05;;;;;;;5.07;3.60;;;;;;;;;;4977372;28;20043;-88
2022/03/26 07:50:39;;;;;;;15.30;6.32;;;;;;;;;;4958785;28;20078;-94
2022/03/26 07:53:06;;;;;;;36.88;14.85;;;;;;;;;;4953696;28;20066;-93
2022/03/26 07:55:32;;;;;;;8.68;4.63;;;;;;;;;;4969269;28;20038;-93
2022/03/26 07:57:59;;;;;;;5.03;2.95;;;;;;;;;;4957794;28;20046;-94
2022/03/26 08:00:26;;;;;;;10.95;5.15;;;;;;;;;;4962384;28;20097;-94
2022/03/26 08:02:52;;;;;;;27.70;9.70;;;;;;;;;;4962386;28;20094;-94
2022/03/26 08:05:19;;;;;;;5.03;2.30;;;;;;;;;;4965667;28;20046;-93
2022/03/26 08:07:58;;;;;;;4.55;2.05;;;;;;;;;;4954173;28;20038;-93
2022/03/26 08:10:30;;;;;;;18.50;9.05;;;;;;;;;;4962443;28;20046;-94
2022/03/26 08:12:57;;;;;;;0.88;0.88;;;;;;;;;;4964324;28;20043;-94
2022/03/26 08:15:26;;;;;;;23.65;11.00;;;;;;;;;;4961643;28;20069;-93
2022/03/26 08:17:52;;;;;;;33.55;13.48;;;;;;;;;;4966806;28;20102;-93
2022/03/26 08:20:20;;;;;;;41.90;15.43;;;;;;;;;;4956764;28;20050;-93
2022/03/26 08:22:46;;;;;;;37.20;17.50;;;;;;;;;;4958314;28;20039;-92
2022/03/26 08:26:19;;;;;;;53.40;19.90;;;;;;;;;;4956937;28;20060;-92
2022/03/26 08:27:58;;;;;;;41.08;17.75;;;;;;;;;;4971409;28;20043;-93
2022/03/26 08:30:24;;;;;;;37.35;14.27;;;;;;;;;;4961739;28;20193;-92
2022/03/26 08:32:50;;;;;;;44.33;13.32;;;;;;;;;;4970364;28;20046;-93
2022/03/26 08:35:16;;;;;;;31.17;12.65;;;;;;;;;;4961683;28;20120;-93
2022/03/26 08:37:43;;;;;;;33.22;17.10;;;;;;;;;;4961806;28;20092;-91
2022/03/26 08:40:20;;;;;;;56.53;24.20;;;;;;;;;;4956604;28;20044;-91
2022/03/26 08:42:46;;;;;;;34.80;15.80;;;;;;;;;;4954841;28;20047;-93
2022/03/26 08:45:13;;;;;;;32.20;10.93;;;;;;;;;;4961883;28;20046;-93
2022/03/26 08:47:39;;;;;;;3.40;2.33;;;;;;;;;;4953739;28;20047;-93
2022/03/26 08:50:09;;;;;;;6.72;4.72;;;;;;;;;;4964657;28;20045;-91
2022/03/26 08:52:37;;;;;;;10.43;4.93;;;;;;;;;;4962897;28;20034;-91
2022/03/26 08:55:03;;;;;;;15.18;7.07;;;;;;;;;;4951165;28;20046;-93
2022/03/26 08:57:35;;;;;;;6.70;3.40;;;;;;;;;;4970813;28;20054;-93
2022/03/26 09:00:31;;;;;;;3.13;2.25;;;;;;;;;;4956905;28;20117;-91
2022/03/26 09:02:58;;;;;;;6.05;3.42;;;;;;;;;;4973617;28;20076;-92
2022/03/26 09:05:28;;;;;;;29.58;11.40;;;;;;;;;;4966671;28;20056;-91
2022/03/26 09:07:54;;;;;;;39.30;17.02;;;;;;;;;;4957568;28;20051;-92
2022/03/26 09:10:20;;;;;;;26.90;11.55;;;;;;;;;;4963497;28;20101;-93
2022/03/26 09:12:49;;;;;;;25.55;7.90;;;;;;;;;;4957241;28;20499;-92
2022/03/26 09:15:16;;;;;;;36.50;14.23;;;;;;;;;;4958977;28;20038;-92
2022/03/26 09:17:43;;;;;;;35.80;17.20;;;;;;;;;;4956048;28;20086;-90
2022/03/26 09:20:10;;;;;;;22.25;8.15;;;7.40;99.90;;;;;;4955022;28;20038;-93
2022/03/26 09:22:36;;;;;;;14.15;6.32;;;14.10;99.90;;;;;;4981145;28;20512;-93
2022/03/26 09:25:04;;;;;;;35.90;8.35;;;14.40;99.90;;;;;;4961585;28;20039;-94
2022/03/26 09:27:30;;;;;;;28.98;11.38;;;13.70;99.90;;;;;;4959873;28;20042;-93
2022/03/26 09:29:57;;;;;;;27.38;11.18;;;13.80;99.90;;;;;;4985779;28;20042;-94
2022/03/26 09:32:23;;;;;;;40.97;14.10;;;14.40;99.90;;;;;;4964990;28;20046;-94
2022/03/26 09:34:51;;;;;;;28.58;13.80;;;14.10;99.90;;;;;;4959661;28;20046;-94
2022/03/26 09:37:20;;;;;;;27.27;10.10;;;14.60;99.90;;;;;;4975440;28;20050;-93
2022/03/26 09:40:02;;;;;;;37.40;16.38;;;14.10;99.90;;;;;;4969151;28;20035;-94
2022/03/26 09:42:29;;;;;;;17.15;7.03;;;14.00;99.90;;;;;;4972471;28;20640;-93
2022/03/26 09:44:58;;;;;;;31.63;7.80;;;14.00;99.90;;;;;;4958202;28;20038;-92
2022/03/26 09:47:24;;;;;;;28.88;13.27;;;14.40;99.90;;;;;;4970822;28;20110;-93
2022/03/26 09:49:50;;;;;;;26.75;10.45;;;14.30;99.90;;;;;;4958818;28;20074;-94
2022/03/26 09:52:16;;;;;;;22.67;10.18;;;14.40;99.90;;;;;;4982564;28;20379;-93
2022/03/26 09:54:43;;;;;;;20.77;8.50;;;14.60;99.90;;;;;;4971278;28;20137;-93
2022/03/26 09:57:09;;;;;;;21.23;10.07;;;14.70;99.90;;;;;;4986085;28;20059;-92
2022/03/26 09:59:36;;;;;;;17.80;7.93;;;14.80;99.90;;;;;;4949466;28;20173;-94
2022/03/26 10:02:08;;;;;;;32.90;14.40;;;15.10;99.90;;;;;;4960994;28;20122;-93
2022/03/26 10:04:39;;;;;;;28.98;10.77;;;14.80;99.90;;;;;;4973119;28;20043;-93
2022/03/26 10:07:05;;;;;;;8.70;3.60;;;14.70;99.90;;;;;;4959565;28;20043;-93
2022/03/26 10:09:36;;;;;;;27.55;10.68;;;15.00;99.90;;;;;;4976921;28;20047;-93
2022/03/26 10:12:21;;;;;;;36.30;14.05;;;15.40;99.90;;;;;;4963602;28;20039;-93
2022/03/26 10:15:19;;;;;;;28.52;10.98;;;15.00;99.90;;;;;;4983553;28;20039;-93
2022/03/26 10:17:46;;;;;;;20.45;8.82;;;15.20;99.90;;;;;;4945134;28;20034;-92
2022/03/26 10:20:13;;;;;;;11.55;5.50;;;15.60;99.90;;;;;;4967213;28;20043;-93
2022/03/26 10:22:50;;;;;;;27.42;11.23;;;14.50;99.90;;;;;;4955230;28;20042;-92
2022/03/26 10:25:21;;;;;;;31.75;12.98;;;15.20;99.90;;;;;;4962024;28;20097;-93
2022/03/26 10:27:56;;;;;;;30.55;13.85;;;14.90;99.90;;;;;;4986702;28;20110;-92
2022/03/26 10:33:20;;;;;;;28.40;10.95;;;15.40;99.90;;;;;;4963965;28;20050;-93
2022/03/26 10:36:00;;;;;;;14.38;5.28;;;15.50;99.90;;;;;;4962251;28;20067;-92
2022/03/26 10:38:41;;;;;;;32.55;13.85;;;15.70;99.90;;;;;;4954178;28;20073;-91
2022/03/26 10:41:08;;;;;;;22.60;11.20;;;15.50;99.90;;;;;;4968481;28;20066;-92
2022/03/26 10:43:41;;;;;;;20.73;10.73;;;15.60;99.90;;;;;;4953907;28;20039;-91
2022/03/26 10:46:07;;;;;;;25.63;11.40;;;15.90;99.90;;;;;;4956091;28;20092;-92
2022/03/26 10:48:37;;;;;;;24.73;10.32;;;15.80;99.90;;;;;;4950154;28;20139;-92
2022/03/26 10:51:13;;;;;;;28.63;14.40;;;15.70;99.90;;;;;;4971581;28;20043;-92
2022/03/26 10:53:54;;;;;;;23.02;11.63;;;15.80;99.90;;;;;;4956661;28;20042;-92
2022/03/26 10:56:20;;;;;;;14.05;7.72;;;15.50;99.90;;;;;;4974007;28;20039;-93
2022/03/26 10:58:54;;;;;;;33.75;8.40;;;16.20;99.90;;;;;;4958315;28;20507;-89
2022/03/26 11:01:22;;;;;;;14.63;7.50;;;15.80;99.90;;;;;;4964317;28;20051;-91
2022/03/26 11:03:49;;;;;;;21.35;8.70;;;15.80;99.90;;;;;;4950965;28;20054;-93
2022/03/26 11:06:17;;;;;;;19.08;8.63;;;15.90;99.90;;;;;;4959251;28;20101;-91
2022/03/26 11:08:46;;;;;;;10.13;5.10;;;15.80;99.90;;;;;;4950321;28;20130;-91
2022/03/26 11:11:12;;;;;;;16.45;8.27;;;15.80;99.90;;;;;;4970545;28;20057;-90
2022/03/26 11:13:48;;;;;;;20.67;9.88;;;16.10;99.90;;;;;;4954832;28;20047;-92
2022/03/26 11:16:34;;;;;;;24.42;12.45;;;16.20;99.90;;;;;;4961003;28;20038;-91
2022/03/26 11:19:33;;;;;;;20.33;10.27;;;16.10;99.90;;;;;;4982844;28;20074;-91
2022/03/26 11:22:33;;;;;;;27.08;11.85;;;16.00;99.90;;;;;;4971999;28;20102;-90
2022/03/26 11:25:37;;;;;;;13.48;5.88;;;16.00;99.90;;;;;;4950596;28;20035;-91
2022/03/26 11:28:28;;;;;;;28.65;7.93;;;16.10;99.90;;;;;;4947384;28;20046;-92
2022/03/26 11:31:06;;;;;;;23.13;10.93;;;16.20;99.90;;;;;;4958233;28;20060;-93
2022/03/26 11:33:40;;;;;;;15.13;7.57;;;16.50;99.90;;;;;;4970793;28;20107;-92
2022/03/26 11:36:10;;;;;;;20.48;9.57;;;16.40;99.90;;;;;;4957753;28;20492;-92
2022/03/26 11:38:38;;;;;;;21.85;10.77;;;16.50;99.90;;;;;;4959219;28;20069;-93
2022/03/26 11:41:08;;;;;;;23.55;10.93;;;16.70;99.90;;;;;;4953452;28;20039;-92
2022/03/26 11:43:43;;;;;;;19.65;9.55;;;16.60;99.90;;;;;;4974096;28;20038;-91
2022/03/26 11:51:55;;;;;;;10.93;6.00;;;16.40;99.90;;;;;;4968690;28;20058;-92
2022/03/26 11:54:21;;;;;;;9.30;4.93;;;16.60;99.90;;;;;;4967730;28;20061;-93
2022/03/26 11:56:47;;;;;;;15.75;8.73;;;16.60;99.90;;;;;;4972149;28;20070;-92
2022/03/26 11:59:16;;;;;;;17.92;9.20;;;16.70;99.90;;;;;;4970540;28;20042;-92
2022/03/26 12:01:49;;;;;;;15.57;8.15;;;16.80;99.90;;;;;;4971268;28;20070;-91
2022/03/26 12:04:20;;;;;;;15.65;8.07;;;16.60;99.90;;;;;;4974403;28;20575;-91
2022/03/26 12:06:57;;;;;;;13.98;6.55;;;16.70;99.90;;;;;;4955978;28;20043;-90
2022/03/26 12:09:39;;;;;;;5.85;2.63;;;16.50;99.90;;;;;;4963816;28;20039;-92
2022/03/26 12:12:05;;;;;;;9.95;4.70;;;16.40;99.90;;;;;;4958903;28;20051;-92
2022/03/26 12:14:35;;;;;;;16.95;7.95;;;16.60;99.90;;;;;;4988658;28;20047;-93
2022/03/26 12:17:04;;;;;;;11.25;5.22;;;17.00;99.90;;;;;;4968750;28;20038;-92
2022/03/26 12:19:47;;;;;;;6.30;3.25;;;16.80;99.90;;;;;;4985865;28;20038;-91
2022/03/26 12:22:21;;;;;;;14.73;5.28;;;16.70;99.90;;;;;;4954455;28;20125;-93
2022/03/26 12:24:48;;;;;;;11.35;4.15;;;16.50;99.90;;;;;;4990568;28;20045;-92
2022/03/26 12:27:15;;;;;;;14.85;7.05;;;16.70;99.90;;;;;;4967497;28;20563;-92
2022/03/26 12:29:44;;;;;;;3.03;1.73;;;16.60;99.90;;;;;;4975758;28;20046;-92
2022/03/26 12:32:10;;;;;;;15.93;6.93;;;16.60;99.90;;;;;;4984492;28;20053;-92
2022/03/26 12:35:01;;;;;;;16.60;7.88;;;16.70;99.90;;;;;;4967516;28;20043;-89
2022/03/26 12:37:28;;;;;;;10.70;5.07;;;16.50;99.90;;;;;;4974367;28;20102;-91
2022/03/26 12:39:55;;;;;;;15.70;9.15;;;17.20;99.90;;;;;;4974925;28;20482;-90
2022/03/26 12:42:23;;;;;;;11.02;5.70;;;16.60;99.90;;;;;;4961270;28;20251;-89
2022/03/26 12:44:49;;;;;;;12.52;6.38;;;16.60;99.90;;;;;;4978075;28;20046;-92
2022/03/26 12:47:20;;;;;;;8.77;4.10;;;16.80;99.90;;;;;;4981268;28;20405;-92
2022/03/26 12:49:48;;;;;;;13.50;6.45;;;16.80;99.90;;;;;;4960038;28;20432;-92
2022/03/26 12:52:24;;;;;;;7.15;4.63;;;16.60;99.90;;;;;;4959606;28;20126;-92
2022/03/26 12:55:00;;;;;;;8.52;4.82;;;16.80;99.90;;;;;;4959125;28;20396;-92
2022/03/26 13:00:27;;;;;;;14.52;6.20;;;16.80;99.90;;;;;;4971117;28;20050;-92
2022/03/26 13:03:07;;;;;;;13.07;7.03;;;17.00;99.90;;;;;;4986006;28;20066;-92
2022/03/26 13:05:37;;;;;;;15.07;5.45;;;16.70;99.90;;;;;;4973332;28;20400;-91
2022/03/26 13:08:06;;;;;;;7.45;3.90;;;16.70;99.90;;;;;;4973545;28;20034;-93
2022/03/26 13:10:41;;;;;;;9.55;5.38;;;16.80;99.90;;;;;;4976359;28;20432;-92
2022/03/26 13:13:07;;;;;;;;;;;16.90;99.90;;;;;;4983748;28;20480;-92
2022/03/26 13:15:34;;;;;;;4.47;2.22;;;16.90;99.90;;;;;;4975272;28;19949;-92
2022/03/26 13:18:05;;;;;;;11.18;5.53;;;16.80;99.90;;;;;;4957160;28;20047;-92
2022/03/26 13:20:33;;;;;;;6.60;4.13;;;16.90;99.90;;;;;;4954171;28;20129;-93
2022/03/26 13:23:06;;;;;;;7.13;4.25;;;17.00;99.90;;;;;;4988602;28;20041;-92
2022/03/26 13:25:37;;;;;;;9.98;5.40;;;16.80;99.90;;;;;;4965229;28;20058;-92
2022/03/26 13:28:19;;;;;;;11.82;6.15;;;16.90;99.90;;;;;;4975965;28;20035;-90
2022/03/26 13:30:47;;;;;;;9.57;3.88;;;16.70;99.90;;;;;;4959050;28;20049;-91
2022/03/26 13:33:23;;;;;;;9.57;4.68;;;16.90;99.90;;;;;;4967367;28;20034;-91
2022/03/26 13:35:54;;;;;;;7.03;3.25;;;16.70;99.90;;;;;;4967112;28;20038;-91
2022/03/26 13:38:25;;;;;;;9.23;4.40;;;16.90;99.90;;;;;;4974329;28;20065;-92
2022/03/26 13:40:51;;;;;;;9.52;5.20;;;16.90;99.90;;;;;;4954253;28;20074;-92
2022/03/26 13:43:18;;;;;;;10.93;5.80;;;17.10;99.90;;;;;;4952812;28;20042;-92
2022/03/26 13:45:45;;;;;;;8.68;4.93;;;16.40;99.90;;;;;;4960012;28;20046;-91
2022/03/26 13:48:12;;;;;;;12.38;4.80;;;16.50;99.90;;;;;;4955311;28;20049;-92
2022/03/26 13:50:41;;;;;;;19.23;6.70;;;16.80;99.90;;;;;;4952566;28;20053;-92
2022/03/26 13:53:18;;;;;;;7.78;4.03;;;16.50;99.90;;;;;;4959369;28;20408;-92
2022/03/26 13:55:48;;;;;;;9.13;4.30;;;16.40;99.90;;;;;;4960602;28;20137;-92
2022/03/26 13:58:19;;;;;;;8.23;4.15;;;16.70;99.90;;;;;;4949326;28;20065;-90
2022/03/26 14:00:45;;;;;;;4.97;2.63;;;16.50;99.90;;;;;;4962294;28;20447;-92
2022/03/26 14:03:11;;;;;;;9.98;4.80;;;18.10;99.90;;;;;;4970912;28;20160;-92
2022/03/26 14:05:40;;;;;;;5.43;2.92;;;16.60;99.90;;;;;;4953422;28;20043;-92
2022/03/26 14:08:09;;;;;;;10.05;4.60;;;16.60;99.90;;;;;;4959840;28;20094;-92
2022/03/26 14:10:46;;;;;;;9.23;2.47;;;16.50;99.90;;;;;;4989069;28;20381;-92
2022/03/26 14:13:16;;;;;;;4.40;2.38;;;16.50;99.90;;;;;;4970035;28;20050;-92
2022/03/26 14:15:44;;;;;;;9.88;4.25;;;16.40;99.90;;;;;;4965791;28;20038;-91